createdAt,value
2022-10-22T20:53:22.053Z,1005.32
2022-10-22T20:54:22.046Z,1005.29
2022-10-22T20:55:22.041Z,1005.28
2022-10-22T20:56:22.050Z,1005.31
2022-10-22T20:57:22.056Z,1005.32
2022-10-22T20:58:27.667Z,1005.31
2022-10-22T20:59:22.063Z,1005.32
2022-10-22T21:00:22.055Z,1005.28
2022-10-22T21:01:22.434Z,1005.33
2022-10-22T21:02:22.466Z,1005.26
2022-10-22T21:03:22.125Z,1005.31
2022-10-22T21:04:22.056Z,1005.28
2022-10-22T21:05:22.046Z,1005.3
2022-10-22T21:06:22.055Z,1005.29
2022-10-22T21:07:22.062Z,1005.29
2022-10-22T21:08:22.051Z,1005.29
2022-10-22T21:09:22.067Z,1005.26
2022-10-22T21:10:22.057Z,1005.24
2022-10-22T21:11:22.053Z,1005.27
2022-10-22T21:12:22.126Z,1005.26
2022-10-22T21:13:22.150Z,1005.24
2022-10-22T21:14:22.074Z,1005.27
2022-10-22T21:15:22.060Z,1005.24
2022-10-22T21:16:22.058Z,1005.25
2022-10-22T21:17:22.048Z,1005.27
2022-10-22T21:18:22.058Z,1005.3
2022-10-22T21:19:22.066Z,1005.32
2022-10-22T21:20:27.064Z,1005.3
2022-10-22T21:21:22.060Z,1005.31
2022-10-22T21:22:22.058Z,1005.29
2022-10-22T21:23:22.055Z,1005.3
2022-10-22T21:24:22.052Z,1005.26
2022-10-22T21:25:22.065Z,1005.27
2022-10-22T21:26:22.116Z,1005.26
2022-10-22T21:27:22.073Z,1005.29
2022-10-22T21:28:22.151Z,1005.26
2022-10-22T21:29:22.064Z,1005.27
2022-10-22T21:30:22.074Z,1005.28
2022-10-22T21:31:22.230Z,1005.27
2022-10-22T21:32:22.056Z,1005.28
2022-10-22T21:33:22.058Z,1005.26
2022-10-22T21:34:22.068Z,1005.27
2022-10-22T21:35:22.048Z,1005.25
2022-10-22T21:36:25.065Z,1005.28
2022-10-22T21:37:22.069Z,1005.29
2022-10-22T21:38:22.066Z,1005.25
2022-10-22T21:39:22.197Z,1005.27
2022-10-22T21:40:22.308Z,1005.27
2022-10-22T21:41:22.074Z,1005.29
2022-10-22T21:42:22.067Z,1005.31
2022-10-22T21:43:22.066Z,1005.29
2022-10-22T21:44:22.050Z,1005.36
2022-10-22T21:45:25.056Z,1005.36
2022-10-22T21:46:22.060Z,1005.37
2022-10-22T21:47:22.060Z,1005.37
2022-10-22T21:48:22.079Z,1005.38
2022-10-22T21:49:22.068Z,1005.34
2022-10-22T21:50:22.063Z,1005.31
2022-10-22T21:51:22.177Z,1005.33
2022-10-22T21:52:22.329Z,1005.31
2022-10-22T21:53:22.050Z,1005.28
2022-10-22T21:54:22.069Z,1005.21
2022-10-22T21:55:22.063Z,1005.23
2022-10-22T21:56:22.053Z,1005.26
2022-10-22T21:57:22.059Z,1005.25
2022-10-22T21:58:22.080Z,1005.25
2022-10-22T21:59:22.093Z,1005.29
2022-10-22T22:00:22.082Z,1005.34
2022-10-22T22:01:22.227Z,1005.33
2022-10-22T22:02:23.135Z,1005.36
2022-10-22T22:03:22.126Z,1005.38
2022-10-22T22:04:22.070Z,1005.38
2022-10-22T22:05:22.062Z,1005.33
2022-10-22T22:06:28.313Z,1005.34
2022-10-22T22:07:22.084Z,1005.37
2022-10-22T22:08:22.059Z,1005.36
2022-10-22T22:09:22.141Z,1005.38
2022-10-22T22:10:22.063Z,1005.36
2022-10-22T22:11:22.061Z,1005.37
2022-10-22T22:12:22.132Z,1005.37
2022-10-22T22:13:22.030Z,1005.33
2022-10-22T22:14:22.067Z,1005.34
2022-10-22T22:15:22.047Z,1005.33
2022-10-22T22:16:29.359Z,1005.27
2022-10-22T22:17:22.048Z,1005.3
2022-10-22T22:18:22.048Z,1005.31
2022-10-22T22:19:22.066Z,1005.26
2022-10-22T22:20:22.071Z,1005.27
2022-10-22T22:21:22.070Z,1005.28
2022-10-22T22:22:22.058Z,1005.24
2022-10-22T22:23:22.043Z,1005.21
2022-10-22T22:24:22.059Z,1005.17
2022-10-22T22:25:22.061Z,1005.19
2022-10-22T22:26:26.970Z,1005.17
2022-10-22T22:27:23.113Z,1005.16
2022-10-22T22:28:22.074Z,1005.15
2022-10-22T22:29:22.059Z,1005.17
2022-10-22T22:30:22.084Z,1005.18
2022-10-22T22:31:22.097Z,1005.19
2022-10-22T22:32:22.052Z,1005.19
2022-10-22T22:33:22.056Z,1005.18
2022-10-22T22:34:22.024Z,1005.16
2022-10-22T22:35:22.055Z,1005.17
2022-10-22T22:36:22.065Z,1005.18
2022-10-22T22:37:22.169Z,1005.14
2022-10-22T22:38:22.064Z,1005.16
2022-10-22T22:39:22.079Z,1005.19
2022-10-22T22:40:22.117Z,1005.21
2022-10-22T22:41:22.042Z,1005.22
2022-10-22T22:42:22.065Z,1005.22
2022-10-22T22:43:22.059Z,1005.2
2022-10-22T22:44:22.095Z,1005.19
2022-10-22T22:45:22.036Z,1005.16
2022-10-22T22:46:22.053Z,1005.14
2022-10-22T22:47:22.048Z,1005.12
2022-10-22T22:48:22.056Z,1005.14
2022-10-22T22:49:22.068Z,1005.09
2022-10-22T22:50:22.112Z,1005.14
2022-10-22T22:51:22.092Z,1005.1
2022-10-22T22:52:23.066Z,1005.12
2022-10-22T22:53:22.068Z,1005.1
2022-10-22T22:54:22.071Z,1005.11
2022-10-22T22:55:22.050Z,1005.14
2022-10-22T22:56:22.087Z,1005.12
2022-10-22T22:57:22.085Z,1005.12
2022-10-22T22:58:22.062Z,1005.12
2022-10-22T22:59:22.082Z,1005.14
2022-10-22T23:00:22.529Z,1005.12
2022-10-22T23:01:22.157Z,1005.07
2022-10-22T23:02:22.177Z,1005.08
2022-10-22T23:03:22.340Z,1005.07
2022-10-22T23:04:22.051Z,1005.08
2022-10-22T23:05:22.426Z,1005.05
2022-10-22T23:06:22.233Z,1005.1
2022-10-22T23:07:22.043Z,1005.08
2022-10-22T23:08:22.233Z,1005.06
2022-10-22T23:09:22.166Z,1005.04
2022-10-22T23:10:22.425Z,1005.06
2022-10-22T23:11:22.148Z,1005.09
2022-10-22T23:12:22.034Z,1005.05
2022-10-22T23:13:22.267Z,1005.06
2022-10-22T23:14:22.033Z,1005.01
2022-10-22T23:15:22.351Z,1005.02
2022-10-22T23:16:22.090Z,1004.99
2022-10-22T23:17:22.147Z,1004.99
2022-10-22T23:18:22.051Z,1004.96
2022-10-22T23:19:22.032Z,1005.03
2022-10-22T23:20:22.047Z,1004.95
2022-10-22T23:21:22.077Z,1004.99
2022-10-22T23:22:22.042Z,1004.99
2022-10-22T23:23:22.037Z,1004.99
2022-10-22T23:24:22.036Z,1004.95
2022-10-22T23:25:22.158Z,1004.97
2022-10-22T23:26:22.057Z,1004.96
2022-10-22T23:27:22.048Z,1004.96
2022-10-22T23:28:22.062Z,1004.97
2022-10-22T23:29:22.177Z,1004.98
2022-10-22T23:30:22.085Z,1004.99
2022-10-22T23:31:22.032Z,1004.98
2022-10-22T23:32:22.042Z,1004.98
2022-10-22T23:33:22.041Z,1004.98
2022-10-22T23:34:22.047Z,1004.96
2022-10-22T23:35:22.053Z,1004.96
2022-10-22T23:36:22.058Z,1004.96
2022-10-22T23:37:22.052Z,1004.93
2022-10-22T23:38:22.043Z,1004.93
2022-10-22T23:39:22.080Z,1004.89
2022-10-22T23:40:22.098Z,1004.85
2022-10-22T23:41:22.161Z,1004.84
2022-10-22T23:42:22.038Z,1004.82
2022-10-22T23:43:22.036Z,1004.77
2022-10-22T23:44:22.082Z,1004.77
2022-10-22T23:45:22.045Z,1004.75
2022-10-22T23:46:22.039Z,1004.71
2022-10-22T23:47:22.061Z,1004.75
2022-10-22T23:48:22.054Z,1004.74
2022-10-22T23:49:22.075Z,1004.75
2022-10-22T23:50:22.049Z,1004.74
2022-10-22T23:51:22.042Z,1004.72
2022-10-22T23:52:22.127Z,1004.68
2022-10-22T23:53:22.174Z,1004.65
2022-10-22T23:54:22.051Z,1004.65
2022-10-22T23:55:22.045Z,1004.65
2022-10-22T23:56:22.043Z,1004.66
2022-10-22T23:57:22.045Z,1004.68
2022-10-22T23:58:22.036Z,1004.66
2022-10-22T23:59:22.069Z,1004.64
